sensor_id;sensor_type;location;lat;lon;timestamp;P1;durP1;ratioP1;P2;durP2;ratioP2
49946;SDS011;35839;48.662;13.300;2023-04-25T05:04:47;4.73;;;4.03;;
49946;SDS011;35839;48.662;13.300;2023-04-25T05:07:12;5.67;;;4.47;;
49946;SDS011;35839;48.662;13.300;2023-04-25T05:09:38;5.13;;;4.50;;
49946;SDS011;35839;48.662;13.300;2023-04-25T05:12:03;5.43;;;4.30;;
49946;SDS011;35839;48.662;13.300;2023-04-25T05:14:28;7.00;;;4.27;;
49946;SDS011;35839;48.662;13.300;2023-04-25T05:16:54;6.93;;;4.40;;
49946;SDS011;35839;48.662;13.300;2023-04-25T05:19:19;6.40;;;4.10;;
49946;SDS011;35839;48.662;13.300;2023-04-25T05:21:45;7.07;;;4.50;;
49946;SDS011;35839;48.662;13.300;2023-04-25T05:24:10;6.50;;;4.70;;
49946;SDS011;35839;48.662;13.300;2023-04-25T05:26:35;7.20;;;5.10;;
49946;SDS011;35839;48.662;13.300;2023-04-25T05:29:02;5.70;;;4.63;;
49946;SDS011;35839;48.662;13.300;2023-04-25T05:31:27;8.20;;;5.17;;
49946;SDS011;35839;48.662;13.300;2023-04-25T05:33:52;7.47;;;4.60;;
49946;SDS011;35839;48.662;13.300;2023-04-25T05:36:18;7.90;;;5.57;;
49946;SDS011;35839;48.662;13.300;2023-04-25T05:38:44;5.17;;;4.53;;
49946;SDS011;35839;48.662;13.300;2023-04-25T05:41:09;6.00;;;4.73;;
49946;SDS011;35839;48.662;13.300;2023-04-25T05:43:35;8.63;;;4.80;;
49946;SDS011;35839;48.662;13.300;2023-04-25T05:46:00;8.23;;;4.37;;
49946;SDS011;35839;48.662;13.300;2023-04-25T05:48:25;8.17;;;4.70;;
49946;SDS011;35839;48.662;13.300;2023-04-25T05:50:51;5.37;;;4.33;;
49946;SDS011;35839;48.662;13.300;2023-04-25T05:53:16;4.57;;;3.73;;
49946;SDS011;35839;48.662;13.300;2023-04-25T05:55:42;5.33;;;4.67;;
49946;SDS011;35839;48.662;13.300;2023-04-25T05:58:07;6.87;;;5.07;;
49946;SDS011;35839;48.662;13.300;2023-04-25T06:00:33;5.83;;;4.23;;
49946;SDS011;35839;48.662;13.300;2023-04-25T06:02:58;5.33;;;4.83;;
49946;SDS011;35839;48.662;13.300;2023-04-25T06:05:24;7.37;;;5.00;;
49946;SDS011;35839;48.662;13.300;2023-04-25T06:07:49;7.97;;;4.80;;
49946;SDS011;35839;48.662;13.300;2023-04-25T06:10:15;7.57;;;4.43;;
49946;SDS011;35839;48.662;13.300;2023-04-25T06:12:40;6.00;;;4.20;;
49946;SDS011;35839;48.662;13.300;2023-04-25T06:15:06;5.83;;;5.03;;
49946;SDS011;35839;48.662;13.300;2023-04-25T06:17:32;5.40;;;4.47;;
49946;SDS011;35839;48.662;13.300;2023-04-25T06:19:57;7.20;;;4.63;;
49946;SDS011;35839;48.662;13.300;2023-04-25T06:22:23;6.33;;;4.73;;
49946;SDS011;35839;48.662;13.300;2023-04-25T06:24:48;5.30;;;4.50;;
49946;SDS011;35839;48.662;13.300;2023-04-25T06:27:13;5.33;;;4.73;;
49946;SDS011;35839;48.662;13.300;2023-04-25T06:29:39;7.63;;;4.80;;
49946;SDS011;35839;48.662;13.300;2023-04-25T06:32:04;7.50;;;4.63;;
49946;SDS011;35839;48.662;13.300;2023-04-25T06:34:30;8.27;;;5.47;;
49946;SDS011;35839;48.662;13.300;2023-04-25T06:36:55;7.50;;;4.27;;
49946;SDS011;35839;48.662;13.300;2023-04-25T06:39:20;8.47;;;4.30;;
49946;SDS011;35839;48.662;13.300;2023-04-25T06:41:48;4.77;;;3.30;;
49946;SDS011;35839;48.662;13.300;2023-04-25T06:44:13;8.87;;;4.33;;
49946;SDS011;35839;48.662;13.300;2023-04-25T06:46:39;4.80;;;3.77;;
49946;SDS011;35839;48.662;13.300;2023-04-25T06:49:04;8.00;;;5.37;;
49946;SDS011;35839;48.662;13.300;2023-04-25T06:51:30;5.03;;;4.03;;
49946;SDS011;35839;48.662;13.300;2023-04-25T06:53:55;6.43;;;4.07;;
49946;SDS011;35839;48.662;13.300;2023-04-25T06:56:21;5.30;;;4.57;;
49946;SDS011;35839;48.662;13.300;2023-04-25T06:58:46;6.20;;;4.03;;
49946;SDS011;35839;48.662;13.300;2023-04-25T07:01:12;6.60;;;4.63;;
49946;SDS011;35839;48.662;13.300;2023-04-25T07:03:37;8.47;;;5.43;;
49946;SDS011;35839;48.662;13.300;2023-04-25T07:06:03;6.63;;;4.63;;
49946;SDS011;35839;48.662;13.300;2023-04-25T07:08:30;6.10;;;3.87;;
49946;SDS011;35839;48.662;13.300;2023-04-25T07:10:55;5.00;;;3.70;;
49946;SDS011;35839;48.662;13.300;2023-04-25T07:13:20;8.07;;;4.40;;
49946;SDS011;35839;48.662;13.300;2023-04-25T07:15:46;7.70;;;4.43;;
49946;SDS011;35839;48.662;13.300;2023-04-25T07:18:13;7.37;;;4.53;;
49946;SDS011;35839;48.662;13.300;2023-04-25T07:20:38;6.60;;;4.27;;
49946;SDS011;35839;48.662;13.300;2023-04-25T07:23:03;6.30;;;3.60;;
49946;SDS011;35839;48.662;13.300;2023-04-25T07:25:29;5.43;;;4.40;;
49946;SDS011;35839;48.662;13.300;2023-04-25T07:27:55;8.90;;;4.60;;
49946;SDS011;35839;48.662;13.300;2023-04-25T07:30:20;5.00;;;3.70;;
49946;SDS011;35839;48.662;13.300;2023-04-25T07:32:46;5.83;;;4.23;;
49946;SDS011;35839;48.662;13.300;2023-04-25T07:35:11;5.63;;;4.50;;
49946;SDS011;35839;48.662;13.300;2023-04-25T07:37:37;5.67;;;4.47;;
49946;SDS011;35839;48.662;13.300;2023-04-25T07:40:02;5.17;;;3.87;;
49946;SDS011;35839;48.662;13.300;2023-04-25T07:42:29;6.95;;;3.90;;
49946;SDS011;35839;48.662;13.300;2023-04-25T07:44:54;5.20;;;3.63;;
49946;SDS011;35839;48.662;13.300;2023-04-25T07:47:20;4.78;;;3.70;;
49946;SDS011;35839;48.662;13.300;2023-04-25T07:49:45;5.50;;;3.50;;
49946;SDS011;35839;48.662;13.300;2023-04-25T07:52:11;6.35;;;3.83;;
49946;SDS011;35839;48.662;13.300;2023-04-25T07:54:36;4.93;;;4.03;;
49946;SDS011;35839;48.662;13.300;2023-04-25T07:57:02;4.30;;;3.70;;
49946;SDS011;35839;48.662;13.300;2023-04-25T07:59:27;6.55;;;3.60;;
49946;SDS011;35839;48.662;13.300;2023-04-25T08:01:53;8.25;;;4.22;;
49946;SDS011;35839;48.662;13.300;2023-04-25T08:04:18;9.65;;;4.40;;
49946;SDS011;35839;48.662;13.300;2023-04-25T08:06:43;5.55;;;4.00;;
49946;SDS011;35839;48.662;13.300;2023-04-25T08:09:09;5.18;;;3.65;;
49946;SDS011;35839;48.662;13.300;2023-04-25T08:11:35;4.63;;;3.88;;
49946;SDS011;35839;48.662;13.300;2023-04-25T08:14:00;6.43;;;3.67;;
49946;SDS011;35839;48.662;13.300;2023-04-25T08:16:26;7.80;;;4.75;;
49946;SDS011;35839;48.662;13.300;2023-04-25T08:18:52;7.38;;;4.28;;
49946;SDS011;35839;48.662;13.300;2023-04-25T08:21:17;4.28;;;3.42;;
49946;SDS011;35839;48.662;13.300;2023-04-25T08:23:42;6.15;;;3.90;;
49946;SDS011;35839;48.662;13.300;2023-04-25T08:26:08;7.78;;;3.58;;
49946;SDS011;35839;48.662;13.300;2023-04-25T08:28:33;10.75;;;7.20;;
49946;SDS011;35839;48.662;13.300;2023-04-25T08:30:58;32.55;;;17.60;;
49946;SDS011;35839;48.662;13.300;2023-04-25T08:33:24;27.23;;;24.33;;
49946;SDS011;35839;48.662;13.300;2023-04-25T08:35:49;8.32;;;5.88;;
49946;SDS011;35839;48.662;13.300;2023-04-25T08:38:15;8.60;;;3.80;;
49946;SDS011;35839;48.662;13.300;2023-04-25T08:40:40;9.05;;;4.07;;
49946;SDS011;35839;48.662;13.300;2023-04-25T08:43:09;5.00;;;3.58;;
49946;SDS011;35839;48.662;13.300;2023-04-25T08:45:39;5.88;;;4.15;;
49946;SDS011;35839;48.662;13.300;2023-04-25T08:48:10;4.15;;;3.50;;
49946;SDS011;35839;48.662;13.300;2023-04-25T08:50:40;7.18;;;3.22;;
49946;SDS011;35839;48.662;13.300;2023-04-25T08:53:13;7.10;;;3.53;;
49946;SDS011;35839;48.662;13.300;2023-04-25T08:58:10;9.65;;;3.60;;
49946;SDS011;35839;48.662;13.300;2023-04-25T09:00:36;12.35;;;3.75;;
49946;SDS011;35839;48.662;13.300;2023-04-25T09:03:01;2.38;;;1.58;;
49946;SDS011;35839;48.662;13.300;2023-04-25T09:05:28;3.75;;;2.13;;
49946;SDS011;35839;48.662;13.300;2023-04-25T09:07:53;6.90;;;2.45;;
49946;SDS011;35839;48.662;13.300;2023-04-25T09:10:19;2.97;;;1.70;;
49946;SDS011;35839;48.662;13.300;2023-04-25T09:12:44;4.17;;;1.30;;
49946;SDS011;35839;48.662;13.300;2023-04-25T09:15:11;2.70;;;1.63;;
49946;SDS011;35839;48.662;13.300;2023-04-25T09:17:37;2.43;;;1.43;;
49946;SDS011;35839;48.662;13.300;2023-04-25T09:20:08;6.73;;;1.30;;
49946;SDS011;35839;48.662;13.300;2023-04-25T09:22:36;1.77;;;1.40;;
49946;SDS011;35839;48.662;13.300;2023-04-25T09:25:03;1.23;;;1.00;;
49946;SDS011;35839;48.662;13.300;2023-04-25T09:27:52;1.30;;;1.07;;
49946;SDS011;35839;48.662;13.300;2023-04-25T09:30:26;2.27;;;1.37;;
49946;SDS011;35839;48.662;13.300;2023-04-25T09:32:56;2.10;;;1.67;;
49946;SDS011;35839;48.662;13.300;2023-04-25T09:35:25;5.33;;;1.80;;
49946;SDS011;35839;48.662;13.300;2023-04-25T09:37:55;7.35;;;2.88;;
49946;SDS011;35839;48.662;13.300;2023-04-25T09:40:21;6.70;;;2.50;;
49946;SDS011;35839;48.662;13.300;2023-04-25T09:42:46;9.20;;;2.92;;
49946;SDS011;35839;48.662;13.300;2023-04-25T09:45:14;3.38;;;2.67;;
49946;SDS011;35839;48.662;13.300;2023-04-25T09:47:40;7.35;;;3.47;;
49946;SDS011;35839;48.662;13.300;2023-04-25T09:50:13;4.88;;;2.67;;
49946;SDS011;35839;48.662;13.300;2023-04-25T09:52:40;6.22;;;3.10;;
49946;SDS011;35839;48.662;13.300;2023-04-25T09:55:05;13.27;;;3.45;;
49946;SDS011;35839;48.662;13.300;2023-04-25T09:57:31;5.90;;;2.65;;
49946;SDS011;35839;48.662;13.300;2023-04-25T09:59:56;10.18;;;3.83;;
49946;SDS011;35839;48.662;13.300;2023-04-25T10:02:26;5.45;;;3.28;;
49946;SDS011;35839;48.662;13.300;2023-04-25T10:04:55;5.72;;;3.30;;
49946;SDS011;35839;48.662;13.300;2023-04-25T10:07:24;3.08;;;2.60;;
49946;SDS011;35839;48.662;13.300;2023-04-25T10:10:03;12.13;;;3.17;;
49946;SDS011;35839;48.662;13.300;2023-04-25T10:12:30;5.18;;;2.60;;
49946;SDS011;35839;48.662;13.300;2023-04-25T10:14:59;5.72;;;2.55;;
49946;SDS011;35839;48.662;13.300;2023-04-25T10:17:25;3.50;;;2.08;;
49946;SDS011;35839;48.662;13.300;2023-04-25T10:19:52;6.60;;;2.25;;
49946;SDS011;35839;48.662;13.300;2023-04-25T10:22:20;3.75;;;2.17;;
49946;SDS011;35839;48.662;13.300;2023-04-25T10:24:56;3.05;;;1.73;;
49946;SDS011;35839;48.662;13.300;2023-04-25T10:27:22;4.05;;;2.10;;
49946;SDS011;35839;48.662;13.300;2023-04-25T10:30:00;2.75;;;2.08;;
49946;SDS011;35839;48.662;13.300;2023-04-25T10:32:29;5.30;;;2.10;;
49946;SDS011;35839;48.662;13.300;2023-04-25T10:34:56;2.67;;;1.55;;
49946;SDS011;35839;48.662;13.300;2023-04-25T10:37:21;4.55;;;1.60;;
49946;SDS011;35839;48.662;13.300;2023-04-25T10:39:47;2.63;;;1.80;;
49946;SDS011;35839;48.662;13.300;2023-04-25T10:42:12;2.63;;;1.80;;
49946;SDS011;35839;48.662;13.300;2023-04-25T10:44:38;3.50;;;1.90;;
49946;SDS011;35839;48.662;13.300;2023-04-25T10:47:06;6.00;;;2.00;;
49946;SDS011;35839;48.662;13.300;2023-04-25T10:49:37;2.22;;;1.70;;
49946;SDS011;35839;48.662;13.300;2023-04-25T10:54:47;3.95;;;1.90;;
49946;SDS011;35839;48.662;13.300;2023-04-25T10:57:28;1.73;;;1.27;;
49946;SDS011;35839;48.662;13.300;2023-04-25T11:00:17;1.70;;;1.60;;
49946;SDS011;35839;48.662;13.300;2023-04-25T11:02:45;2.45;;;1.60;;
49946;SDS011;35839;48.662;13.300;2023-04-25T11:05:16;4.00;;;2.17;;
49946;SDS011;35839;48.662;13.300;2023-04-25T11:07:51;3.47;;;1.75;;
49946;SDS011;35839;48.662;13.300;2023-04-25T11:10:19;2.90;;;1.25;;
49946;SDS011;35839;48.662;13.300;2023-04-25T11:12:45;4.32;;;3.05;;
49946;SDS011;35839;48.662;13.300;2023-04-25T11:15:11;2.25;;;1.70;;
49946;SDS011;35839;48.662;13.300;2023-04-25T11:17:38;2.92;;;1.83;;
49946;SDS011;35839;48.662;13.300;2023-04-25T11:20:05;4.10;;;1.85;;
49946;SDS011;35839;48.662;13.300;2023-04-25T11:22:33;1.27;;;1.15;;
49946;SDS011;35839;48.662;13.300;2023-04-25T11:25:04;5.38;;;2.47;;
49946;SDS011;35839;48.662;13.300;2023-04-25T11:27:30;2.95;;;1.58;;
49946;SDS011;35839;48.662;13.300;2023-04-25T11:29:55;1.42;;;1.30;;
49946;SDS011;35839;48.662;13.300;2023-04-25T11:32:20;1.88;;;1.13;;
49946;SDS011;35839;48.662;13.300;2023-04-25T11:34:46;1.60;;;0.93;;
49946;SDS011;35839;48.662;13.300;2023-04-25T11:37:11;1.25;;;0.90;;
49946;SDS011;35839;48.662;13.300;2023-04-25T11:39:37;1.15;;;1.02;;
49946;SDS011;35839;48.662;13.300;2023-04-25T11:42:03;2.20;;;1.38;;
49946;SDS011;35839;48.662;13.300;2023-04-25T11:44:31;3.20;;;1.38;;
49946;SDS011;35839;48.662;13.300;2023-04-25T11:46:57;1.52;;;1.40;;
49946;SDS011;35839;48.662;13.300;2023-04-25T11:49:22;2.60;;;1.75;;
49946;SDS011;35839;48.662;13.300;2023-04-25T11:51:49;2.85;;;2.13;;
49946;SDS011;35839;48.662;13.300;2023-04-25T11:54:15;1.80;;;1.70;;
49946;SDS011;35839;48.662;13.300;2023-04-25T11:56:44;1.92;;;1.73;;
49946;SDS011;35839;48.662;13.300;2023-04-25T11:59:10;3.70;;;2.00;;
49946;SDS011;35839;48.662;13.300;2023-04-25T12:01:37;2.78;;;2.20;;
49946;SDS011;35839;48.662;13.300;2023-04-25T12:04:13;7.22;;;2.22;;
49946;SDS011;35839;48.662;13.300;2023-04-25T12:06:40;2.65;;;1.92;;
49946;SDS011;35839;48.662;13.300;2023-04-25T12:09:07;2.38;;;2.05;;
49946;SDS011;35839;48.662;13.300;2023-04-25T12:12:09;2.40;;;2.20;;
49946;SDS011;35839;48.662;13.300;2023-04-25T12:14:34;2.60;;;1.95;;
49946;SDS011;35839;48.662;13.300;2023-04-25T12:17:02;2.92;;;1.80;;
49946;SDS011;35839;48.662;13.300;2023-04-25T12:19:32;2.90;;;2.00;;
49946;SDS011;35839;48.662;13.300;2023-04-25T12:21:59;3.10;;;2.08;;
49946;SDS011;35839;48.662;13.300;2023-04-25T12:24:26;4.10;;;2.17;;
49946;SDS011;35839;48.662;13.300;2023-04-25T12:29:18;2.20;;;1.70;;
49946;SDS011;35839;48.662;13.300;2023-04-25T12:31:48;1.58;;;1.42;;
49946;SDS011;35839;48.662;13.300;2023-04-25T12:34:14;2.47;;;1.73;;
49946;SDS011;35839;48.662;13.300;2023-04-25T12:36:39;1.50;;;1.40;;
49946;SDS011;35839;48.662;13.300;2023-04-25T12:39:05;1.27;;;1.17;;
49946;SDS011;35839;48.662;13.300;2023-04-25T12:41:31;1.20;;;1.10;;
49946;SDS011;35839;48.662;13.300;2023-04-25T12:43:57;1.88;;;1.50;;
49946;SDS011;35839;48.662;13.300;2023-04-25T12:46:22;3.25;;;1.30;;
49946;SDS011;35839;48.662;13.300;2023-04-25T12:48:50;2.03;;;1.50;;
49946;SDS011;35839;48.662;13.300;2023-04-25T12:51:16;3.35;;;1.65;;
49946;SDS011;35839;48.662;13.300;2023-04-25T12:53:41;2.25;;;2.00;;
49946;SDS011;35839;48.662;13.300;2023-04-25T12:56:07;2.38;;;1.85;;
49946;SDS011;35839;48.662;13.300;2023-04-25T12:58:35;4.40;;;1.92;;
49946;SDS011;35839;48.662;13.300;2023-04-25T13:01:00;2.63;;;1.80;;
49946;SDS011;35839;48.662;13.300;2023-04-25T13:03:25;5.40;;;2.28;;
49946;SDS011;35839;48.662;13.300;2023-04-25T13:05:51;3.67;;;3.03;;
49946;SDS011;35839;48.662;13.300;2023-04-25T13:08:17;4.57;;;3.20;;
49946;SDS011;35839;48.662;13.300;2023-04-25T13:10:43;5.25;;;2.80;;
49946;SDS011;35839;48.662;13.300;2023-04-25T13:13:08;3.97;;;2.63;;
49946;SDS011;35839;48.662;13.300;2023-04-25T13:15:34;2.28;;;2.05;;
49946;SDS011;35839;48.662;13.300;2023-04-25T13:18:00;3.72;;;2.08;;
49946;SDS011;35839;48.662;13.300;2023-04-25T13:20:25;2.38;;;1.90;;
49946;SDS011;35839;48.662;13.300;2023-04-25T13:22:51;2.95;;;2.35;;
49946;SDS011;35839;48.662;13.300;2023-04-25T13:25:16;3.40;;;2.33;;
49946;SDS011;35839;48.662;13.300;2023-04-25T13:27:41;2.85;;;2.35;;
49946;SDS011;35839;48.662;13.300;2023-04-25T13:30:09;3.42;;;2.63;;
49946;SDS011;35839;48.662;13.300;2023-04-25T13:32:35;3.55;;;2.30;;
49946;SDS011;35839;48.662;13.300;2023-04-25T13:35:01;4.65;;;2.35;;
49946;SDS011;35839;48.662;13.300;2023-04-25T13:37:28;3.80;;;2.83;;
49946;SDS011;35839;48.662;13.300;2023-04-25T13:39:54;3.88;;;2.25;;
49946;SDS011;35839;48.662;13.300;2023-04-25T13:42:20;4.30;;;2.75;;
49946;SDS011;35839;48.662;13.300;2023-04-25T13:44:46;3.05;;;2.20;;
49946;SDS011;35839;48.662;13.300;2023-04-25T13:47:11;2.70;;;2.40;;
49946;SDS011;35839;48.662;13.300;2023-04-25T13:49:37;6.10;;;2.75;;
49946;SDS011;35839;48.662;13.300;2023-04-25T13:52:02;2.85;;;2.50;;
49946;SDS011;35839;48.662;13.300;2023-04-25T13:54:27;3.17;;;2.88;;
49946;SDS011;35839;48.662;13.300;2023-04-25T13:56:52;4.45;;;2.83;;
49946;SDS011;35839;48.662;13.300;2023-04-25T13:59:23;5.47;;;3.13;;
49946;SDS011;35839;48.662;13.300;2023-04-25T14:01:48;4.38;;;3.83;;
49946;SDS011;35839;48.662;13.300;2023-04-25T14:04:14;3.40;;;3.10;;
49946;SDS011;35839;48.662;13.300;2023-04-25T14:06:40;4.18;;;2.85;;
49946;SDS011;35839;48.662;13.300;2023-04-25T14:09:06;3.80;;;2.75;;
49946;SDS011;35839;48.662;13.300;2023-04-25T14:11:35;4.32;;;3.53;;
49946;SDS011;35839;48.662;13.300;2023-04-25T14:14:01;5.28;;;3.92;;
49946;SDS011;35839;48.662;13.300;2023-04-25T14:16:27;4.05;;;2.15;;
49946;SDS011;35839;48.662;13.300;2023-04-25T14:18:53;2.03;;;1.83;;
49946;SDS011;35839;48.662;13.300;2023-04-25T14:21:19;1.65;;;1.48;;
49946;SDS011;35839;48.662;13.300;2023-04-25T14:23:45;3.00;;;1.40;;
49946;SDS011;35839;48.662;13.300;2023-04-25T14:26:11;2.83;;;1.50;;
49946;SDS011;35839;48.662;13.300;2023-04-25T14:28:37;2.45;;;1.85;;
49946;SDS011;35839;48.662;13.300;2023-04-25T14:31:03;2.55;;;1.90;;
49946;SDS011;35839;48.662;13.300;2023-04-25T14:33:28;2.53;;;1.75;;
49946;SDS011;35839;48.662;13.300;2023-04-25T14:35:54;2.67;;;2.42;;
49946;SDS011;35839;48.662;13.300;2023-04-25T14:38:20;3.20;;;2.17;;
49946;SDS011;35839;48.662;13.300;2023-04-25T14:40:48;3.78;;;2.20;;
49946;SDS011;35839;48.662;13.300;2023-04-25T14:43:14;3.88;;;2.30;;
49946;SDS011;35839;48.662;13.300;2023-04-25T14:45:39;2.90;;;2.28;;
49946;SDS011;35839;48.662;13.300;2023-04-25T14:48:04;5.07;;;3.17;;
49946;SDS011;35839;48.662;13.300;2023-04-25T14:50:30;2.30;;;2.10;;
49946;SDS011;35839;48.662;13.300;2023-04-25T14:52:55;2.55;;;2.35;;
49946;SDS011;35839;48.662;13.300;2023-04-25T14:55:23;2.67;;;2.15;;
49946;SDS011;35839;48.662;13.300;2023-04-25T14:57:49;2.88;;;2.25;;
49946;SDS011;35839;48.662;13.300;2023-04-25T15:00:14;5.30;;;2.20;;
49946;SDS011;35839;48.662;13.300;2023-04-25T15:02:41;3.13;;;2.30;;
49946;SDS011;35839;48.662;13.300;2023-04-25T15:05:06;3.22;;;2.22;;
49946;SDS011;35839;48.662;13.300;2023-04-25T15:07:33;2.83;;;2.10;;
49946;SDS011;35839;48.662;13.300;2023-04-25T15:10:00;3.58;;;2.20;;
49946;SDS011;35839;48.662;13.300;2023-04-25T15:12:25;3.20;;;2.25;;
49946;SDS011;35839;48.662;13.300;2023-04-25T15:14:53;1.98;;;1.83;;
49946;SDS011;35839;48.662;13.300;2023-04-25T15:17:18;3.88;;;2.60;;
49946;SDS011;35839;48.662;13.300;2023-04-25T15:19:43;3.70;;;2.38;;
49946;SDS011;35839;48.662;13.300;2023-04-25T15:22:09;4.32;;;2.45;;
49946;SDS011;35839;48.662;13.300;2023-04-25T15:24:35;3.75;;;2.58;;
49946;SDS011;35839;48.662;13.300;2023-04-25T15:27:00;4.47;;;2.50;;
49946;SDS011;35839;48.662;13.300;2023-04-25T15:29:25;3.30;;;2.10;;
49946;SDS011;35839;48.662;13.300;2023-04-25T15:31:52;5.25;;;3.30;;
49946;SDS011;35839;48.662;13.300;2023-04-25T15:34:17;3.85;;;3.45;;
49946;SDS011;35839;48.662;13.300;2023-04-25T15:36:43;6.13;;;3.03;;
49946;SDS011;35839;48.662;13.300;2023-04-25T15:39:08;7.10;;;3.35;;
49946;SDS011;35839;48.662;13.300;2023-04-25T15:41:33;3.75;;;3.20;;
49946;SDS011;35839;48.662;13.300;2023-04-25T15:43:59;4.68;;;2.88;;
49946;SDS011;35839;48.662;13.300;2023-04-25T15:46:25;3.40;;;2.20;;
49946;SDS011;35839;48.662;13.300;2023-04-25T15:48:51;4.03;;;2.10;;
49946;SDS011;35839;48.662;13.300;2023-04-25T15:51:16;4.10;;;2.20;;
49946;SDS011;35839;48.662;13.300;2023-04-25T15:53:42;2.78;;;2.05;;
49946;SDS011;35839;48.662;13.300;2023-04-25T15:56:07;3.78;;;2.00;;
49946;SDS011;35839;48.662;13.300;2023-04-25T15:58:32;2.42;;;1.98;;
49946;SDS011;35839;48.662;13.300;2023-04-25T16:00:58;2.83;;;1.92;;
49946;SDS011;35839;48.662;13.300;2023-04-25T16:03:23;3.40;;;1.85;;
49946;SDS011;35839;48.662;13.300;2023-04-25T16:05:49;4.13;;;2.53;;
49946;SDS011;35839;48.662;13.300;2023-04-25T16:08:14;4.00;;;2.10;;
49946;SDS011;35839;48.662;13.300;2023-04-25T16:10:40;6.45;;;1.90;;
49946;SDS011;35839;48.662;13.300;2023-04-25T16:13:06;2.55;;;1.85;;
49946;SDS011;35839;48.662;13.300;2023-04-25T16:15:31;3.20;;;1.58;;
49946;SDS011;35839;48.662;13.300;2023-04-25T16:17:56;3.50;;;1.83;;
49946;SDS011;35839;48.662;13.300;2023-04-25T16:20:22;4.88;;;2.15;;
49946;SDS011;35839;48.662;13.300;2023-04-25T16:22:47;4.70;;;1.95;;
49946;SDS011;35839;48.662;13.300;2023-04-25T16:25:13;4.13;;;2.08;;
49946;SDS011;35839;48.662;13.300;2023-04-25T16:27:38;2.33;;;1.80;;
49946;SDS011;35839;48.662;13.300;2023-04-25T16:30:04;1.88;;;1.73;;
49946;SDS011;35839;48.662;13.300;2023-04-25T16:32:34;1.75;;;1.55;;
49946;SDS011;35839;48.662;13.300;2023-04-25T16:35:00;2.60;;;1.60;;
49946;SDS011;35839;48.662;13.300;2023-04-25T16:37:25;2.10;;;1.90;;
49946;SDS011;35839;48.662;13.300;2023-04-25T16:39:51;5.38;;;2.17;;
49946;SDS011;35839;48.662;13.300;2023-04-25T16:42:16;2.05;;;1.80;;
49946;SDS011;35839;48.662;13.300;2023-04-25T16:44:42;4.25;;;1.90;;
49946;SDS011;35839;48.662;13.300;2023-04-25T16:47:07;1.95;;;1.70;;
49946;SDS011;35839;48.662;13.300;2023-04-25T16:49:32;2.75;;;1.77;;
49946;SDS011;35839;48.662;13.300;2023-04-25T16:51:58;3.95;;;2.10;;
49946;SDS011;35839;48.662;13.300;2023-04-25T16:54:23;2.80;;;1.80;;
49946;SDS011;35839;48.662;13.300;2023-04-25T16:56:49;4.03;;;2.40;;
49946;SDS011;35839;48.662;13.300;2023-04-25T16:59:16;2.75;;;1.90;;
49946;SDS011;35839;48.662;13.300;2023-04-25T17:01:41;4.53;;;3.03;;
49946;SDS011;35839;48.662;13.300;2023-04-25T17:04:06;4.22;;;2.63;;
49946;SDS011;35839;48.662;13.300;2023-04-25T17:06:32;5.93;;;2.78;;
49946;SDS011;35839;48.662;13.300;2023-04-25T17:08:57;7.32;;;2.95;;
49946;SDS011;35839;48.662;13.300;2023-04-25T17:11:22;2.42;;;2.03;;
49946;SDS011;35839;48.662;13.300;2023-04-25T17:13:48;2.13;;;1.90;;
49946;SDS011;35839;48.662;13.300;2023-04-25T17:16:13;3.55;;;2.50;;
49946;SDS011;35839;48.662;13.300;2023-04-25T17:18:41;2.55;;;2.17;;
49946;SDS011;35839;48.662;13.300;2023-04-25T17:21:07;2.35;;;2.10;;
49946;SDS011;35839;48.662;13.300;2023-04-25T17:23:33;5.97;;;2.38;;
49946;SDS011;35839;48.662;13.300;2023-04-25T17:25:59;4.07;;;2.70;;
49946;SDS011;35839;48.662;13.300;2023-04-25T17:28:25;3.90;;;2.63;;
49946;SDS011;35839;48.662;13.300;2023-04-25T17:30:50;3.70;;;2.50;;
49946;SDS011;35839;48.662;13.300;2023-04-25T17:33:15;3.22;;;2.58;;
49946;SDS011;35839;48.662;13.300;2023-04-25T17:35:41;5.55;;;3.22;;
49946;SDS011;35839;48.662;13.300;2023-04-25T17:38:06;6.03;;;2.50;;
49946;SDS011;35839;48.662;13.300;2023-04-25T17:40:31;3.25;;;2.05;;
49946;SDS011;35839;48.662;13.300;2023-04-25T17:42:57;3.13;;;2.10;;
49946;SDS011;35839;48.662;13.300;2023-04-25T17:45:22;5.65;;;2.70;;
49946;SDS011;35839;48.662;13.300;2023-04-25T17:47:47;5.55;;;2.42;;
49946;SDS011;35839;48.662;13.300;2023-04-25T17:50:13;3.80;;;2.30;;
49946;SDS011;35839;48.662;13.300;2023-04-25T17:52:40;2.97;;;2.50;;
49946;SDS011;35839;48.662;13.300;2023-04-25T17:55:06;3.37;;;2.23;;
49946;SDS011;35839;48.662;13.300;2023-04-25T17:57:32;5.43;;;2.70;;
49946;SDS011;35839;48.662;13.300;2023-04-25T17:59:57;4.53;;;2.30;;
49946;SDS011;35839;48.662;13.300;2023-04-25T18:02:23;3.22;;;2.33;;
49946;SDS011;35839;48.662;13.300;2023-04-25T18:04:48;3.15;;;2.63;;
49946;SDS011;35839;48.662;13.300;2023-04-25T18:07:14;4.40;;;2.80;;
49946;SDS011;35839;48.662;13.300;2023-04-25T18:09:40;9.43;;;3.50;;
49946;SDS011;35839;48.662;13.300;2023-04-25T18:12:05;6.78;;;2.88;;
49946;SDS011;35839;48.662;13.300;2023-04-25T18:14:32;5.97;;;2.78;;
49946;SDS011;35839;48.662;13.300;2023-04-25T18:16:58;3.47;;;2.78;;
49946;SDS011;35839;48.662;13.300;2023-04-25T18:19:24;4.00;;;3.13;;
49946;SDS011;35839;48.662;13.300;2023-04-25T18:21:50;6.80;;;3.40;;
49946;SDS011;35839;48.662;13.300;2023-04-25T18:24:18;4.45;;;3.00;;
49946;SDS011;35839;48.662;13.300;2023-04-25T18:26:45;3.20;;;2.77;;
49946;SDS011;35839;48.662;13.300;2023-04-25T18:29:15;4.63;;;2.67;;
49946;SDS011;35839;48.662;13.300;2023-04-25T18:34:10;3.57;;;2.30;;
49946;SDS011;35839;48.662;13.300;2023-04-25T18:36:36;2.40;;;2.13;;
49946;SDS011;35839;48.662;13.300;2023-04-25T18:39:02;3.53;;;2.70;;
49946;SDS011;35839;48.662;13.300;2023-04-25T18:41:30;3.85;;;2.95;;
49946;SDS011;35839;48.662;13.300;2023-04-25T18:43:56;3.87;;;3.20;;
49946;SDS011;35839;48.662;13.300;2023-04-25T18:46:26;3.20;;;2.80;;
49946;SDS011;35839;48.662;13.300;2023-04-25T18:48:51;4.73;;;3.47;;
49946;SDS011;35839;48.662;13.300;2023-04-25T18:51:17;3.37;;;2.80;;
49946;SDS011;35839;48.662;13.300;2023-04-25T18:53:43;5.33;;;2.90;;
49946;SDS011;35839;48.662;13.300;2023-04-25T18:56:09;6.63;;;3.13;;
49946;SDS011;35839;48.662;13.300;2023-04-25T18:58:34;5.27;;;2.93;;
49946;SDS011;35839;48.662;13.300;2023-04-25T19:01:00;3.97;;;2.60;;
49946;SDS011;35839;48.662;13.300;2023-04-25T19:03:25;3.97;;;2.97;;
49946;SDS011;35839;48.662;13.300;2023-04-25T19:05:52;5.33;;;2.13;;
49946;SDS011;35839;48.662;13.300;2023-04-25T19:08:17;4.20;;;2.30;;
49946;SDS011;35839;48.662;13.300;2023-04-25T19:10:42;3.47;;;2.33;;
49946;SDS011;35839;48.662;13.300;2023-04-25T19:13:08;3.60;;;2.50;;
49946;SDS011;35839;48.662;13.300;2023-04-25T19:15:33;3.90;;;2.50;;
49946;SDS011;35839;48.662;13.300;2023-04-25T19:17:59;5.13;;;2.80;;
49946;SDS011;35839;48.662;13.300;2023-04-25T19:20:24;4.30;;;3.20;;
49946;SDS011;35839;48.662;13.300;2023-04-25T19:22:50;5.37;;;2.60;;
49946;SDS011;35839;48.662;13.300;2023-04-25T19:25:17;6.00;;;3.07;;
49946;SDS011;35839;48.662;13.300;2023-04-25T19:27:42;3.37;;;2.77;;
49946;SDS011;35839;48.662;13.300;2023-04-25T19:30:08;4.23;;;2.37;;
49946;SDS011;35839;48.662;13.300;2023-04-25T19:32:34;2.93;;;2.30;;
49946;SDS011;35839;48.662;13.300;2023-04-25T19:35:00;3.93;;;2.63;;
49946;SDS011;35839;48.662;13.300;2023-04-25T19:37:27;3.47;;;2.27;;
49946;SDS011;35839;48.662;13.300;2023-04-25T19:39:53;5.73;;;2.00;;
49946;SDS011;35839;48.662;13.300;2023-04-25T19:42:18;2.73;;;2.37;;